Time;durP1;ratioP1;P1;durP2;ratioP2;P2;SDS_P1;SDS_P2;PMS_P1;PMS_P2;Temp;Humidity;BMP_temperature;BMP_pressure;BME280_temperature;BME280_humidity;BME280_pressure;Samples;Min_cycle;Max_cycle;Signal;HPM_P1;HPM_P2
2024/03/25 00:02:13;;;;;;;30.73;11.80;;;6.70;99.90;;;;;;819953;175;26380;-80
2024/03/25 00:04:40;;;;;;;34.97;10.10;;;6.60;99.90;;;;;;820929;173;26371;-81
2024/03/25 00:07:07;;;;;;;34.40;9.73;;;6.60;99.90;;;;;;817879;174;26370;-82
2024/03/25 00:09:33;;;;;;;36.67;14.70;;;6.60;99.90;;;;;;802978;178;26455;-80
2024/03/25 00:12:00;;;;;;;20.43;6.87;;;6.60;99.90;;;;;;818377;174;26410;-80
2024/03/25 00:14:27;;;;;;;29.60;8.40;;;6.50;99.90;;;;;;818925;173;26391;-81
2024/03/25 00:16:53;;;;;;;33.27;10.83;;;6.50;99.90;;;;;;821011;173;26376;-80
2024/03/25 00:19:20;;;;;;;27.70;8.43;;;6.40;99.90;;;;;;815311;176;26429;-80
2024/03/25 00:21:46;;;;;;;23.30;7.17;;;6.30;99.90;;;;;;819765;173;26363;-81
2024/03/25 00:24:13;;;;;;;23.00;6.50;;;6.30;99.90;;;;;;808626;175;26539;-81
2024/03/25 00:26:40;;;;;;;30.97;7.13;;;6.30;99.90;;;;;;813434;176;26390;-82
2024/03/25 00:29:06;;;;;;;18.07;6.63;;;6.20;99.90;;;;;;807171;176;26455;-82
2024/03/25 00:31:33;;;;;;;19.13;6.23;;;6.20;99.90;;;;;;809986;176;26400;-80
2024/03/25 00:34:00;;;;;;;26.50;7.50;;;6.20;99.90;;;;;;811767;176;26394;-81
2024/03/25 00:36:26;;;;;;;36.87;13.80;;;6.10;99.90;;;;;;822194;173;26378;-81
2024/03/25 00:38:55;;;;;;;24.67;8.13;;;6.00;99.90;;;;;;804525;178;26532;-80
2024/03/25 00:41:20;;;;;;;48.50;16.87;;;6.00;99.90;;;;;;822460;174;27641;-82
2024/03/25 00:43:46;;;;;;;31.57;10.80;;;6.10;99.90;;;;;;823946;174;26991;-82
2024/03/25 00:46:13;;;;;;;33.80;11.27;;;6.20;99.90;;;;;;818285;174;26388;-81
2024/03/25 00:48:42;;;;;;;52.27;19.47;;;6.10;99.90;;;;;;810246;176;26402;-82
2024/03/25 00:51:06;;;;;;;26.03;10.77;;;6.10;99.90;;;;;;812330;176;26418;-82
2024/03/25 00:53:33;;;;;;;30.63;9.60;;;6.20;99.90;;;;;;818931;173;26412;-80
2024/03/25 00:56:00;;;;;;;47.47;19.20;;;6.20;99.90;;;;;;814180;175;26474;-81
2024/03/25 00:58:26;;;;;;;62.93;23.87;;;6.30;99.90;;;;;;822522;173;26372;-82
2024/03/25 01:00:53;;;;;;;49.23;18.30;;;6.30;99.90;;;;;;803667;177;26454;-81
2024/03/25 01:03:20;;;;;;;27.97;9.93;;;6.30;99.90;;;;;;810390;176;26372;-80
2024/03/25 01:05:46;;;;;;;36.60;11.83;;;6.40;99.90;;;;;;810274;176;26412;-82
2024/03/25 01:08:14;;;;;;;63.53;22.97;;;6.30;99.90;;;;;;813109;176;26397;-81
2024/03/25 01:10:40;;;;;;;111.73;41.43;;;6.30;99.90;;;;;;821150;174;26560;-82
2024/03/25 01:13:07;;;;;;;57.20;19.80;;;6.30;99.90;;;;;;803562;177;26441;-82
2024/03/25 01:15:33;;;;;;;26.23;6.93;;;6.30;99.90;;;;;;821094;174;26630;-80
2024/03/25 01:18:00;;;;;;;33.00;8.90;;;6.30;99.90;;;;;;819307;175;26605;-80
2024/03/25 01:20:27;;;;;;;26.00;7.30;;;6.40;99.90;;;;;;824433;173;26606;-81
2024/03/25 01:22:54;;;;;;;25.33;7.03;;;6.50;99.90;;;;;;821716;173;26396;-80
2024/03/25 01:25:20;;;;;;;28.20;7.70;;;6.50;99.90;;;;;;823291;173;26425;-80
2024/03/25 01:27:47;;;;;;;21.80;6.67;;;6.60;99.90;;;;;;819058;174;26549;-81
2024/03/25 01:30:14;;;;;;;23.37;6.57;;;6.60;99.90;;;;;;821097;173;26607;-80
2024/03/25 01:32:41;;;;;;;30.07;7.10;;;6.60;99.90;;;;;;820549;174;26408;-80
2024/03/25 01:35:08;;;;;;;23.73;7.27;;;6.60;99.90;;;;;;825140;173;26426;-81
2024/03/25 01:37:34;;;;;;;42.27;8.63;;;6.60;99.90;;;;;;819555;173;27092;-80
2024/03/25 01:40:01;;;;;;;24.80;7.20;;;6.60;99.90;;;;;;822076;173;26427;-80
2024/03/25 01:42:28;;;;;;;25.17;7.27;;;6.60;99.90;;;;;;819725;173;26958;-80
2024/03/25 01:44:54;;;;;;;32.17;7.53;;;6.60;99.90;;;;;;821236;174;26428;-80
2024/03/25 01:47:21;;;;;;;19.27;6.00;;;6.50;99.90;;;;;;823822;173;26532;-81
2024/03/25 01:49:49;;;;;;;32.30;6.60;;;6.40;99.90;;;;;;824624;173;26427;-81
2024/03/25 01:52:14;;;;;;;21.93;7.57;;;6.40;99.90;;;;;;819201;173;26449;-81
2024/03/25 01:54:41;;;;;;;28.27;7.23;;;6.40;99.90;;;;;;819331;174;26544;-80
2024/03/25 01:57:08;;;;;;;30.23;7.43;;;6.40;99.90;;;;;;819429;173;26524;-81
2024/03/25 01:59:34;;;;;;;37.97;9.50;;;6.40;99.90;;;;;;819252;174;26429;-82
2024/03/25 02:02:01;;;;;;;32.10;8.77;;;6.30;99.90;;;;;;822074;173;26388;-84
2024/03/25 02:04:28;;;;;;;26.70;6.70;;;6.40;99.90;;;;;;821244;173;26969;-80
2024/03/25 02:06:55;;;;;;;33.87;7.20;;;6.40;99.90;;;;;;824449;170;26415;-80
2024/03/25 02:09:22;;;;;;;27.13;8.03;;;6.50;99.90;;;;;;818145;173;26425;-83
2024/03/25 02:11:48;;;;;;;32.67;9.97;;;6.50;99.90;;;;;;817967;174;26408;-80
2024/03/25 02:14:15;;;;;;;42.90;14.83;;;6.40;99.90;;;;;;822752;174;26557;-80
2024/03/25 02:16:42;;;;;;;34.87;11.60;;;6.40;99.90;;;;;;821273;174;26399;-81
2024/03/25 02:19:08;;;;;;;33.07;9.37;;;6.40;99.90;;;;;;821766;173;27014;-81
2024/03/25 02:21:35;;;;;;;24.00;5.80;;;6.40;99.90;;;;;;824925;174;26399;-81
2024/03/25 02:24:02;;;;;;;25.37;6.93;;;6.30;99.90;;;;;;820665;174;26412;-81
2024/03/25 02:26:28;;;;;;;32.80;7.43;;;6.20;99.90;;;;;;824871;173;26402;-81
2024/03/25 02:28:55;;;;;;;20.17;5.97;;;6.20;99.90;;;;;;804940;177;26581;-82
2024/03/25 02:31:22;;;;;;;23.23;6.10;;;6.20;99.90;;;;;;820594;173;26381;-81
2024/03/25 02:33:48;;;;;;;20.57;6.53;;;6.20;99.90;;;;;;808859;176;26379;-82
2024/03/25 02:36:15;;;;;;;25.87;6.07;;;6.10;99.90;;;;;;811523;176;26408;-82
2024/03/25 02:38:42;;;;;;;24.50;8.17;;;6.10;99.90;;;;;;819827;174;26375;-81
2024/03/25 02:41:08;;;;;;;26.20;6.27;;;6.10;99.90;;;;;;822581;172;26413;-82
2024/03/25 02:43:35;;;;;;;19.90;6.17;;;6.00;99.90;;;;;;814333;175;26408;-81
2024/03/25 02:46:01;;;;;;;28.03;6.40;;;6.00;99.90;;;;;;804449;177;26548;-82
2024/03/25 02:48:28;;;;;;;31.90;6.53;;;6.00;99.90;;;;;;819915;174;26400;-81
2024/03/25 02:50:55;;;;;;;23.13;6.40;;;6.00;99.90;;;;;;821869;173;26384;-81
2024/03/25 02:53:22;;;;;;;26.90;7.60;;;6.00;99.90;;;;;;815815;175;26446;-80
2024/03/25 02:55:48;;;;;;;24.33;8.53;;;6.00;99.90;;;;;;820778;173;26393;-81
2024/03/25 02:58:15;;;;;;;30.10;6.80;;;6.00;99.90;;;;;;818580;174;26526;-81
2024/03/25 03:00:41;;;;;;;26.00;8.33;;;6.00;99.90;;;;;;819945;173;26437;-80
2024/03/25 03:03:08;;;;;;;21.37;5.70;;;6.00;99.90;;;;;;823596;173;26383;-82
2024/03/25 03:05:35;;;;;;;25.90;5.73;;;6.10;99.90;;;;;;810999;175;26399;-81
2024/03/25 03:08:01;;;;;;;28.67;6.07;;;6.10;99.90;;;;;;819718;173;26388;-81
2024/03/25 03:10:28;;;;;;;15.70;5.40;;;6.10;99.90;;;;;;817684;176;26453;-81
2024/03/25 03:12:55;;;;;;;24.10;6.60;;;6.10;99.90;;;;;;812404;176;26437;-80
2024/03/25 03:15:21;;;;;;;24.27;6.47;;;6.10;99.90;;;;;;811598;176;26416;-81
2024/03/25 03:17:48;;;;;;;24.50;5.80;;;6.10;99.90;;;;;;806340;176;26549;-80
2024/03/25 03:20:15;;;;;;;28.90;7.17;;;6.00;99.90;;;;;;822022;173;26403;-81
2024/03/25 03:22:42;;;;;;;24.23;7.20;;;6.00;99.90;;;;;;819583;173;26376;-81
2024/03/25 03:25:08;;;;;;;29.90;6.73;;;5.90;99.90;;;;;;815363;174;26398;-81
2024/03/25 03:27:35;;;;;;;24.17;7.27;;;5.90;99.90;;;;;;824639;173;26388;-82
2024/03/25 03:30:02;;;;;;;22.03;6.37;;;5.90;99.90;;;;;;812227;176;26443;-80
2024/03/25 03:32:29;;;;;;;24.20;5.90;;;5.80;99.90;;;;;;819508;173;26393;-81
2024/03/25 03:34:55;;;;;;;27.13;5.93;;;5.80;99.90;;;;;;820188;173;26392;-81
2024/03/25 03:37:22;;;;;;;24.13;6.13;;;5.80;99.90;;;;;;814194;175;26432;-82
2024/03/25 03:39:48;;;;;;;30.60;6.37;;;5.80;99.90;;;;;;823611;173;26413;-80
2024/03/25 03:42:15;;;;;;;42.00;7.23;;;5.80;99.90;;;;;;820466;174;26384;-82
2024/03/25 03:44:42;;;;;;;16.20;5.17;;;5.70;99.90;;;;;;823095;173;26425;-80
2024/03/25 03:47:08;;;;;;;34.30;7.87;;;5.70;99.90;;;;;;818658;174;26955;-81
2024/03/25 03:49:35;;;;;;;23.40;5.70;;;5.70;99.90;;;;;;818238;175;26433;-80
2024/03/25 03:52:02;;;;;;;24.27;5.67;;;5.70;99.90;;;;;;822141;173;26399;-80
2024/03/25 03:54:29;;;;;;;28.53;6.00;;;5.70;99.90;;;;;;813472;175;26414;-82
2024/03/25 03:56:55;;;;;;;28.53;5.77;;;5.70;99.90;;;;;;809402;176;27072;-80
2024/03/25 03:59:22;;;;;;;29.97;6.00;;;5.70;99.90;;;;;;819112;174;26399;-81
2024/03/25 04:01:49;;;;;;;22.57;6.47;;;5.60;99.90;;;;;;823686;174;26387;-81
2024/03/25 04:04:15;;;;;;;24.97;6.37;;;5.50;99.90;;;;;;814834;176;26395;-81
2024/03/25 04:06:42;;;;;;;25.53;5.83;;;5.50;99.90;;;;;;812812;176;26415;-81
2024/03/25 04:09:09;;;;;;;24.67;5.93;;;5.50;99.90;;;;;;826101;173;26551;-81
2024/03/25 04:11:36;;;;;;;42.30;7.07;;;5.40;99.90;;;;;;818933;173;26527;-82
2024/03/25 04:14:03;;;;;;;25.80;6.07;;;5.40;99.90;;;;;;817581;176;26395;-81
2024/03/25 04:16:30;;;;;;;26.10;6.60;;;5.30;99.90;;;;;;818590;174;26376;-80
2024/03/25 04:18:56;;;;;;;25.70;6.43;;;5.30;99.90;;;;;;819943;173;26400;-82
2024/03/25 04:21:23;;;;;;;30.03;6.70;;;5.20;99.90;;;;;;809836;176;28007;-81
2024/03/25 04:23:50;;;;;;;26.07;6.37;;;5.20;99.90;;;;;;807391;176;26428;-82
2024/03/25 04:26:16;;;;;;;30.00;5.80;;;5.10;99.90;;;;;;814249;176;26570;-81
2024/03/25 04:28:43;;;;;;;21.93;6.47;;;5.00;99.90;;;;;;804846;178;27241;-81
2024/03/25 04:31:10;;;;;;;27.50;6.37;;;5.10;99.90;;;;;;819253;173;26391;-81
2024/03/25 04:33:36;;;;;;;31.43;8.30;;;5.10;99.90;;;;;;818336;174;26355;-81
2024/03/25 04:36:03;;;;;;;37.07;7.93;;;5.00;99.90;;;;;;817529;174;26791;-82
2024/03/25 04:38:30;;;;;;;24.30;6.57;;;4.90;99.90;;;;;;821589;173;26922;-81
2024/03/25 04:40:57;;;;;;;33.67;6.57;;;4.90;99.90;;;;;;823207;173;26419;-81
2024/03/25 04:43:23;;;;;;;29.87;7.00;;;4.90;99.90;;;;;;822241;171;26375;-83
2024/03/25 04:45:58;;;;;;;28.90;6.93;;;4.90;99.90;;;;;;793960;178;26473;-81
2024/03/25 04:48:28;;;;;;;24.50;6.80;;;4.90;99.90;;;;;;804634;178;26462;-81
2024/03/25 04:51:00;;;;;;;18.43;5.97;;;4.90;99.90;;;;;;804392;174;26428;-79
2024/03/25 04:53:40;;;;;;;23.00;6.03;;;4.80;99.90;;;;;;796770;177;26427;-80
2024/03/25 04:56:10;;;;;;;27.27;7.33;;;4.80;99.90;;;;;;806123;177;26472;-80
2024/03/25 04:58:47;;;;;;;32.27;7.30;;;4.80;99.90;;;;;;806352;178;26492;-82
2024/03/25 05:01:16;;;;;;;26.83;6.93;;;4.90;99.90;;;;;;803708;179;26488;-83
2024/03/25 05:03:47;;;;;;;29.20;7.03;;;4.80;99.90;;;;;;807579;174;26573;-84
2024/03/25 05:06:17;;;;;;;27.40;6.53;;;4.90;99.90;;;;;;806936;178;26476;-85
2024/03/25 05:08:51;;;;;;;26.13;6.90;;;4.80;99.90;;;;;;805738;178;26441;-83
2024/03/25 05:11:22;;;;;;;32.70;7.70;;;4.90;99.90;;;;;;808711;178;26430;-85
2024/03/25 05:13:53;;;;;;;30.60;7.47;;;4.80;99.90;;;;;;809244;177;26509;-83
2024/03/25 05:16:26;;;;;;;30.93;7.23;;;5.00;99.90;;;;;;803058;178;26439;-82
2024/03/25 05:19:01;;;;;;;32.30;8.87;;;5.10;99.90;;;;;;803231;177;26433;-81
2024/03/25 05:21:28;;;;;;;24.47;7.17;;;5.20;99.90;;;;;;805383;177;26434;-82
2024/03/25 05:24:02;;;;;;;32.10;7.47;;;5.10;99.90;;;;;;804077;178;26445;-83
2024/03/25 05:26:30;;;;;;;28.43;7.80;;;5.00;99.90;;;;;;802290;178;27046;-82
2024/03/25 05:29:01;;;;;;;27.60;6.53;;;4.90;99.90;;;;;;804751;177;26485;-82
2024/03/25 05:31:31;;;;;;;21.13;6.60;;;4.90;99.90;;;;;;806258;177;26440;-83
2024/03/25 05:34:02;;;;;;;28.60;6.93;;;4.90;99.90;;;;;;802913;177;26468;-81
2024/03/25 05:36:32;;;;;;;23.20;7.67;;;4.80;99.90;;;;;;804649;174;26466;-84
2024/03/25 05:39:05;;;;;;;40.33;8.70;;;4.80;99.90;;;;;;786357;179;26487;-83
2024/03/25 05:41:35;;;;;;;26.73;8.23;;;4.70;99.90;;;;;;790519;177;26491;-84
2024/03/25 05:44:06;;;;;;;39.40;9.10;;;4.70;99.90;;;;;;790352;177;27014;-81
2024/03/25 05:46:33;;;;;;;32.33;8.30;;;4.70;99.90;;;;;;791936;179;26481;-82
2024/03/25 05:49:06;;;;;;;26.33;7.90;;;4.70;99.90;;;;;;804478;176;26448;-83
2024/03/25 05:51:36;;;;;;;32.07;9.70;;;4.70;99.90;;;;;;789373;180;26455;-82
2024/03/25 05:54:05;;;;;;;24.20;7.63;;;4.70;99.90;;;;;;791429;179;26499;-82
2024/03/25 05:56:41;;;;;;;19.23;7.50;;;4.70;99.90;;;;;;790308;180;26456;-81
2024/03/25 05:59:12;;;;;;;24.33;8.43;;;4.70;99.90;;;;;;805670;178;26428;-80
2024/03/25 06:01:42;;;;;;;23.13;6.63;;;4.70;99.90;;;;;;806602;176;26426;-83
2024/03/25 06:04:13;;;;;;;34.43;9.43;;;4.70;99.90;;;;;;805883;178;26441;-82
2024/03/25 06:06:42;;;;;;;25.67;8.03;;;4.80;99.90;;;;;;789239;180;26445;-82
2024/03/25 06:11:52;;;;;;;28.27;8.53;;;4.80;99.90;;;;;;792745;180;26769;-83
2024/03/25 06:14:28;;;;;;;27.27;8.53;;;4.80;99.90;;;;;;803926;177;26437;-81
2024/03/25 06:16:54;;;;;;;27.73;9.10;;;4.90;99.90;;;;;;807814;176;26517;-82
2024/03/25 06:19:27;;;;;;;29.20;9.23;;;4.90;99.90;;;;;;805975;177;26433;-81
2024/03/25 06:21:57;;;;;;;23.93;7.67;;;5.10;99.90;;;;;;802940;177;26418;-82
2024/03/25 06:24:40;;;;;;;;;;;;;;;;;;;;;
2024/03/25 06:27:08;;;;;;;27.73;8.50;;;5.20;99.90;;;;;;807026;177;26438;-82
2024/03/25 06:29:41;;;;;;;24.70;9.07;;;5.40;99.90;;;;;;804180;175;26709;-84
2024/03/25 06:34:43;;;;;;;23.07;8.30;;;5.30;99.90;;;;;;803445;177;26598;-81
2024/03/25 06:37:14;;;;;;;25.50;7.50;;;5.30;99.90;;;;;;808050;177;26450;-80
2024/03/25 06:39:42;;;;;;;29.70;7.63;;;5.30;99.90;;;;;;804879;176;26482;-81
2024/03/25 06:42:11;;;;;;;21.50;7.80;;;5.40;99.90;;;;;;803255;177;26425;-83
2024/03/25 06:44:43;;;;;;;27.93;7.57;;;5.40;99.90;;;;;;805443;177;26445;-82
2024/03/25 06:47:08;;;;;;;22.83;7.97;;;5.50;99.90;;;;;;805969;178;26455;-80
2024/03/25 06:49:34;;;;;;;23.03;7.17;;;5.60;99.90;;;;;;808748;177;26490;-82
2024/03/25 06:52:09;;;;;;;19.27;7.80;;;5.70;99.90;;;;;;805924;177;26454;-81
2024/03/25 06:54:41;;;;;;;20.27;6.87;;;5.70;99.90;;;;;;805421;178;26441;-82
2024/03/25 06:57:10;;;;;;;13.83;5.93;;;5.80;99.90;;;;;;808441;177;26598;-81
2024/03/25 06:59:42;;;;;;;17.87;7.03;;;5.90;99.90;;;;;;808934;175;26425;-80
2024/03/25 07:02:09;;;;;;;18.87;7.13;;;5.90;99.90;;;;;;806640;176;26425;-82
2024/03/25 07:04:43;;;;;;;21.97;6.83;;;6.00;99.90;;;;;;812012;176;26443;-80
2024/03/25 07:07:11;;;;;;;18.30;6.80;;;6.10;99.90;;;;;;807915;177;26475;-81
2024/03/25 07:09:39;;;;;;;22.50;6.80;;;6.10;99.90;;;;;;804569;175;27139;-81
2024/03/25 07:12:06;;;;;;;25.47;7.40;;;6.10;99.90;;;;;;804081;178;26443;-81
2024/03/25 07:14:42;;;;;;;30.40;8.77;;;6.10;99.90;;;;;;804605;177;26437;-83
2024/03/25 07:17:11;;;;;;;23.50;7.70;;;6.20;99.90;;;;;;806680;174;26424;-84
2024/03/25 07:19:45;;;;;;;26.67;7.60;;;6.20;99.90;;;;;;807251;173;26431;-85
2024/03/25 07:22:17;;;;;;;27.43;8.00;;;6.30;99.90;;;;;;809008;175;26441;-84
2024/03/25 07:24:46;;;;;;;27.33;7.87;;;6.40;99.90;;;;;;807771;173;26437;-86
2024/03/25 07:27:21;;;;;;;23.57;7.43;;;6.40;99.90;;;;;;804063;173;26462;-82
2024/03/25 07:29:51;;;;;;;30.00;8.10;;;6.50;99.90;;;;;;807253;177;26462;-80
2024/03/25 07:32:18;;;;;;;21.23;6.73;;;6.50;99.90;;;;;;804433;176;27032;-81
2024/03/25 07:34:48;;;;;;;27.77;9.20;;;6.60;99.90;;;;;;803348;176;26443;-82
2024/03/25 07:37:21;;;;;;;32.50;8.90;;;6.70;99.90;;;;;;806659;178;26437;-81
2024/03/25 07:42:26;;;;;;;23.67;8.87;;;6.80;99.90;;;;;;807559;175;26405;-85
2024/03/25 07:45:00;;;;;;;29.53;7.83;;;6.80;99.90;;;;;;810337;176;26441;-81
2024/03/25 07:47:31;;;;;;;26.20;7.53;;;6.90;99.90;;;;;;806637;174;26441;-80
2024/03/25 07:50:01;;;;;;;26.17;7.83;;;7.00;99.90;;;;;;806273;178;26434;-81
2024/03/25 07:52:30;;;;;;;28.77;7.87;;;7.10;99.90;;;;;;808746;176;26684;-83
2024/03/25 07:55:02;;;;;;;23.47;6.60;;;7.30;99.90;;;;;;807453;177;26600;-81
2024/03/25 07:57:34;;;;;;;19.90;7.93;;;7.30;99.90;;;;;;803012;179;26490;-81
2024/03/25 08:00:28;;;;;;;23.83;7.33;;;7.50;99.90;;;;;;802789;179;26439;-82
2024/03/25 08:03:10;;;;;;;;;;;;;;;;;;;;;
2024/03/25 08:05:39;;;;;;;21.33;7.33;;;7.60;99.90;;;;;;808558;177;26441;-82
2024/03/25 08:08:09;;;;;;;19.10;6.43;;;7.70;99.90;;;;;;804593;178;26407;-83
2024/03/25 08:10:38;;;;;;;26.83;6.47;;;7.90;99.90;;;;;;806903;176;26422;-82
2024/03/25 08:13:04;;;;;;;17.20;5.97;;;8.10;99.90;;;;;;810185;176;26419;-82
2024/03/25 08:15:37;;;;;;;19.87;6.77;;;8.20;99.90;;;;;;810469;173;26443;-83
2024/03/25 08:18:08;;;;;;;20.57;6.27;;;8.30;99.90;;;;;;810588;176;26463;-82
2024/03/25 08:20:40;;;;;;;28.93;6.03;;;8.20;99.90;;;;;;806420;173;26488;-84
2024/03/25 08:23:10;;;;;;;25.27;5.87;;;8.40;99.90;;;;;;812718;172;26441;-85
2024/03/25 08:25:44;;;;;;;28.07;7.30;;;8.60;99.90;;;;;;805805;173;27980;-84
2024/03/25 08:28:13;;;;;;;22.53;6.30;;;8.50;99.90;;;;;;804973;173;26434;-84
2024/03/25 08:30:43;;;;;;;21.63;5.30;;;8.50;99.90;;;;;;809564;177;26558;-83
2024/03/25 08:33:12;;;;;;;24.27;5.97;;;8.30;99.90;;;;;;800885;174;26591;-83
2024/03/25 08:35:41;;;;;;;19.00;5.30;;;8.30;99.90;;;;;;804104;173;26449;-83
2024/03/25 08:38:12;;;;;;;21.77;5.30;;;8.40;99.90;;;;;;789177;180;26494;-83
2024/03/25 08:40:41;;;;;;;19.53;4.97;;;8.60;99.90;;;;;;788609;177;26442;-81
2024/03/25 08:43:17;;;;;;;18.37;5.67;;;8.60;99.90;;;;;;787182;180;26463;-84
2024/03/25 08:45:52;;;;;;;22.77;4.40;;;8.70;99.90;;;;;;782183;179;26494;-83
2024/03/25 08:48:23;;;;;;;19.80;4.67;;;9.00;99.90;;;;;;793373;178;26574;-84
2024/03/25 08:50:52;;;;;;;15.33;3.73;;;8.90;99.90;;;;;;792696;179;26447;-85
2024/03/25 08:53:23;;;;;;;21.60;4.90;;;9.10;99.90;;;;;;806902;174;26428;-86
2024/03/25 08:55:55;;;;;;;25.80;6.20;;;9.20;99.90;;;;;;793006;168;26420;-84
2024/03/25 08:58:25;;;;;;;19.53;5.73;;;9.40;99.90;;;;;;796316;176;26459;-87
2024/03/25 09:00:55;;;;;;;17.33;4.03;;;9.70;99.90;;;;;;788148;183;26473;-85
2024/03/25 09:03:23;;;;;;;16.03;3.80;;;9.80;99.90;;;;;;788426;181;28062;-81
2024/03/25 09:06:00;;;;;;;19.17;5.33;;;9.90;99.30;;;;;;787343;182;26470;-81
2024/03/25 09:08:36;;;;;;;16.73;4.00;;;10.10;99.90;;;;;;806162;178;26996;-81
2024/03/25 09:11:09;;;;;;;24.47;7.37;;;9.90;99.60;;;;;;807206;177;26420;-81
2024/03/25 09:13:50;;;;;;;22.80;6.90;;;9.70;99.90;;;;;;789196;179;26545;-81
2024/03/25 09:16:24;;;;;;;18.77;5.37;;;9.90;99.90;;;;;;788677;180;26484;-81
2024/03/25 09:18:54;;;;;;;17.77;4.63;;;9.90;99.90;;;;;;790607;179;26618;-82
2024/03/25 09:21:29;;;;;;;15.87;5.10;;;9.80;99.90;;;;;;798014;179;26448;-82
2024/03/25 09:24:08;;;;;;;22.67;6.20;;;9.80;99.90;;;;;;796063;180;26493;-82
2024/03/25 09:26:39;;;;;;;17.90;5.33;;;10.20;99.90;;;;;;791761;180;26459;-83
2024/03/25 09:29:08;;;;;;;19.53;5.20;;;10.70;99.10;;;;;;789272;180;26523;-83
2024/03/25 09:31:40;;;;;;;18.37;5.03;;;10.90;98.60;;;;;;791538;181;26526;-81
2024/03/25 09:34:12;;;;;;;18.50;5.00;;;10.90;96.70;;;;;;790814;179;26467;-81
2024/03/25 09:36:38;;;;;;;15.57;5.63;;;10.20;98.50;;;;;;802350;178;26430;-82
2024/03/25 09:39:10;;;;;;;20.37;4.93;;;10.00;99.50;;;;;;807286;178;26490;-82
2024/03/25 09:41:37;;;;;;;34.40;11.30;;;10.00;99.90;;;;;;799963;178;26472;-82
2024/03/25 09:46:38;;;;;;;19.27;6.07;;;10.50;97.30;;;;;;800090;178;26495;-83
2024/03/25 09:49:07;;;;;;;11.70;4.40;;;10.80;96.20;;;;;;795344;178;27001;-83
2024/03/25 09:51:33;;;;;;;20.17;5.07;;;11.00;94.80;;;;;;802526;178;26483;-82
2024/03/25 09:54:00;;;;;;;21.70;5.50;;;11.00;95.00;;;;;;784161;182;26466;-80
2024/03/25 09:56:40;;;;;;;;;;;;;;;;;;;;;
2024/03/25 09:59:07;;;;;;;18.10;5.20;;;11.50;96.40;;;;;;802885;177;26441;-82
2024/03/25 10:01:41;;;;;;;14.80;5.17;;;11.80;94.90;;;;;;785138;181;26453;-83
2024/03/25 10:04:08;;;;;;;17.20;4.80;;;12.00;94.00;;;;;;800708;172;26512;-81
2024/03/25 10:06:35;;;;;;;16.80;5.00;;;12.10;91.90;;;;;;817765;176;26430;-81
2024/03/25 10:09:09;;;;;;;15.73;5.20;;;12.00;96.40;;;;;;811679;176;26443;-82
2024/03/25 10:11:38;;;;;;;15.83;4.90;;;12.20;94.00;;;;;;798392;179;26404;-81
2024/03/25 10:14:08;;;;;;;19.03;5.03;;;12.40;93.00;;;;;;795693;179;26415;-81
2024/03/25 10:16:33;;;;;;;18.47;4.50;;;12.50;92.40;;;;;;797835;180;26388;-81
2024/03/25 10:19:00;;;;;;;17.03;4.33;;;12.70;91.60;;;;;;797378;180;26481;-81
2024/03/25 10:21:27;;;;;;;24.90;4.63;;;12.20;90.40;;;;;;790483;180;26450;-81
2024/03/25 10:23:55;;;;;;;14.63;4.80;;;12.10;91.90;;;;;;800735;180;26460;-81
2024/03/25 10:26:27;;;;;;;14.57;4.47;;;12.00;92.70;;;;;;798814;180;26567;-81
2024/03/25 10:28:59;;;;;;;21.40;5.03;;;12.10;92.40;;;;;;796707;180;26434;-81
2024/03/25 10:31:26;;;;;;;15.17;4.40;;;12.10;91.60;;;;;;797148;180;26400;-81
2024/03/25 10:33:53;;;;;;;20.40;4.90;;;12.40;90.90;;;;;;799362;178;26445;-80
2024/03/25 10:36:20;;;;;;;14.17;4.83;;;11.90;89.00;;;;;;789871;176;26385;-82
2024/03/25 10:38:47;;;;;;;16.23;4.37;;;12.20;93.10;;;;;;784592;183;26524;-79
2024/03/25 10:41:14;;;;;;;13.37;4.13;;;12.40;90.50;;;;;;770758;186;26506;-81
2024/03/25 10:43:41;;;;;;;13.77;4.67;;;12.70;90.00;;;;;;777626;179;26561;-81
2024/03/25 10:46:13;;;;;;;14.30;4.07;;;13.20;78.90;;;;;;807064;170;26487;-81
2024/03/25 10:48:52;;;;;;;13.07;3.87;;;13.70;77.40;;;;;;826891;170;26564;-79
2024/03/25 10:51:25;;;;;;;11.70;3.80;;;13.90;68.20;;;;;;823593;173;26425;-82
2024/03/25 10:54:17;;;;;;;15.80;4.73;;;14.80;68.20;;;;;;826441;173;26589;-80
2024/03/25 10:57:05;;;;;;;15.30;4.57;;;15.80;66.70;;;;;;827160;171;26635;-80
2024/03/25 10:59:45;;;;;;;14.10;3.83;;;16.30;49.80;;;;;;827321;170;26451;-81
2024/03/25 11:02:28;;;;;;;;;;;;;;;;;;;;;
2024/03/25 11:07:40;;;;;;;12.23;3.77;;;17.80;45.80;;;;;;812851;176;26604;-83
2024/03/25 11:10:14;;;;;;;12.70;3.97;;;18.40;45.30;;;;;;814545;176;26434;-83
2024/03/25 11:21:13;;;;;;;12.37;4.10;;;17.70;44.50;;;;;;811940;175;26440;-82
2024/03/25 11:26:27;;;;;;;10.97;4.10;;;18.40;44.00;;;;;;806048;171;26561;-79
2024/03/25 11:28:54;;;;;;;14.90;4.43;;;19.00;40.70;;;;;;791965;181;26616;-80
2024/03/25 11:31:24;;;;;;;20.53;11.07;;;18.00;38.20;;;;;;777488;185;26464;-81
2024/03/25 11:33:48;;;;;;;15.70;5.70;;;16.60;42.00;;;;;;777328;185;26467;-80
2024/03/25 11:36:15;;;;;;;10.93;3.33;;;15.60;43.80;;;;;;777549;184;26566;-80
2024/03/25 11:38:43;;;;;;;39.63;20.53;;;15.00;46.00;;;;;;777412;185;26458;-79
2024/03/25 11:41:08;;;;;;;8.83;3.80;;;16.10;45.40;;;;;;777278;185;26447;-80
2024/03/25 11:43:35;;;;;;;12.13;3.83;;;17.20;47.10;;;;;;777629;185;26981;-80
2024/03/25 11:46:02;;;;;;;11.57;3.90;;;18.30;44.80;;;;;;766252;184;26605;-80
2024/03/25 11:48:28;;;;;;;9.47;3.40;;;18.90;40.00;;;;;;779195;184;26446;-80
2024/03/25 11:50:54;;;;;;;9.67;3.47;;;19.20;37.60;;;;;;778854;185;26493;-80
2024/03/25 11:53:21;;;;;;;20.50;9.60;;;18.50;35.60;;;;;;779022;185;26527;-82
2024/03/25 11:55:48;;;;;;;18.47;6.30;;;18.70;37.90;;;;;;778697;185;26463;-79
2024/03/25 11:58:14;;;;;;;17.47;4.57;;;19.40;36.10;;;;;;778556;181;26470;-80
2024/03/25 12:00:45;;;;;;;10.47;3.77;;;19.60;39.60;;;;;;778576;185;26451;-80
2024/03/25 12:03:14;;;;;;;11.00;3.70;;;19.90;39.90;;;;;;778403;185;26444;-81
2024/03/25 12:05:41;;;;;;;8.10;3.47;;;20.70;39.80;;;;;;778467;185;26459;-81
2024/03/25 12:08:08;;;;;;;8.47;3.47;;;20.70;34.30;;;;;;778259;185;26451;-82
2024/03/25 12:13:07;;;;;;;10.17;3.80;;;19.90;37.80;;;;;;778070;185;26434;-80
2024/03/25 12:15:34;;;;;;;12.93;3.53;;;20.70;40.10;;;;;;777940;185;26487;-82
2024/03/25 12:18:00;;;;;;;12.63;3.80;;;20.90;35.60;;;;;;777967;185;26647;-79
2024/03/25 12:20:27;;;;;;;10.57;3.50;;;20.60;33.90;;;;;;777546;185;26463;-80
2024/03/25 12:22:53;;;;;;;13.80;3.90;;;19.90;39.10;;;;;;777091;185;26447;-79
2024/03/25 12:25:20;;;;;;;9.47;3.30;;;19.40;37.10;;;;;;777375;185;26581;-80
2024/03/25 12:27:47;;;;;;;11.33;3.60;;;20.00;38.50;;;;;;777196;184;26446;-80
2024/03/25 12:30:13;;;;;;;11.87;4.43;;;20.20;35.80;;;;;;777160;185;26447;-78
2024/03/25 12:32:41;;;;;;;6.40;2.93;;;20.40;35.60;;;;;;777205;184;26969;-80
2024/03/25 12:35:09;;;;;;;11.30;3.90;;;21.30;38.30;;;;;;776961;185;27040;-79
2024/03/25 12:37:36;;;;;;;8.67;3.50;;;21.70;32.10;;;;;;776971;185;26463;-80
2024/03/25 12:40:04;;;;;;;8.27;3.53;;;21.80;33.50;;;;;;777091;185;26480;-79
2024/03/25 12:42:30;;;;;;;12.77;3.90;;;20.90;32.70;;;;;;777715;182;26460;-80
2024/03/25 12:44:56;;;;;;;11.73;3.87;;;21.20;35.00;;;;;;777395;185;26581;-80
2024/03/25 12:47:24;;;;;;;10.33;3.50;;;19.90;34.60;;;;;;775910;184;26607;-82
2024/03/25 12:49:51;;;;;;;11.53;3.33;;;21.50;36.30;;;;;;787047;181;26595;-81
2024/03/25 12:52:17;;;;;;;10.90;3.87;;;22.30;34.50;;;;;;783296;183;26488;-80
2024/03/25 12:54:45;;;;;;;14.93;4.10;;;22.20;35.20;;;;;;783981;183;26465;-80
2024/03/25 12:57:13;;;;;;;9.23;3.63;;;20.30;32.40;;;;;;786242;181;26508;-80
2024/03/25 12:59:39;;;;;;;10.93;3.60;;;20.80;37.10;;;;;;785446;183;26562;-81
2024/03/25 13:02:06;;;;;;;7.47;3.40;;;21.30;33.00;;;;;;784825;183;26575;-81
2024/03/25 13:04:33;;;;;;;11.00;3.63;;;21.00;30.60;;;;;;784402;183;26758;-81
2024/03/25 13:06:59;;;;;;;9.13;3.43;;;20.30;32.80;;;;;;784273;183;26455;-82
2024/03/25 13:09:26;;;;;;;9.70;3.63;;;17.80;37.50;;;;;;784250;183;26612;-81
2024/03/25 13:11:53;;;;;;;10.30;4.50;;;19.90;35.30;;;;;;784192;183;26463;-81
2024/03/25 13:14:19;;;;;;;8.33;3.40;;;21.70;36.20;;;;;;783861;183;26462;-82
2024/03/25 13:16:46;;;;;;;9.57;3.57;;;21.10;31.50;;;;;;783685;183;26596;-80
2024/03/25 13:19:13;;;;;;;8.13;3.63;;;21.80;37.30;;;;;;783492;183;26642;-81
2024/03/25 13:21:39;;;;;;;9.73;3.10;;;22.80;35.30;;;;;;783600;183;26959;-81
2024/03/25 13:24:07;;;;;;;10.67;3.80;;;23.50;31.30;;;;;;784165;183;26458;-80